Austin Bergstrom International Airport
KAUS : now visible

Airfield :











YOU CAN JOIN US ON...

 
LOGIN :

Register | Disclaimer

   EN    FR    IT 

 









Legend :    VFR   Marginal VFR   IFR   Intensive IFR   Very Intensive IFR
Visi :
Ceiling :
>= 8 km
>= 3000ft
5 to 8 km
1000 to 3000 ft
1500m to 5 km
500 to 1000 ft
800 to 1500m
200 to 500 ft
< 800m
< 200 ft
Symbols :   Thunderstorms  Fog  Heavy snow  Heavy precipitations  Wind > 20 kt






- Airport Elevation : 542 ft
- IATA code : AUS


KAUS - Austin Bergstrom International

CURRENT METAR :
  • 072053Z 14012G16KT 10SM SCT065 36/19 A2999 RMK AO2 SLP142 T03610194 58015

EXPIRED METARs :
  • 071953Z 17011G20KT 10SM SCT055 36/20 A3001 RMK AO2 SLP149 T03610200
  • 071853Z 18006G18KT 10SM SCT055 34/21 A3002 RMK AO2 SLP153 T03440206
  • 071753Z 16008G18KT 10SM FEW047 35/21 A3003 RMK AO2 SLP157 T03500206 10350 20222 58008

TAF KAUS
Valid from the 07 at 18:00 until the 09 at 00:00 UTC


071745Z 0718/0824 18012G20KT P6SM SCT050
FM072100 15011KT P6SM FEW080
FM081000 19005KT P6SM SCT015 BKN035
FM081600 17011KT P6SM SCT050
KZHU FIR / North America



MET'MAP, your aeronautical weather chart ! - Copyright ORBIFLY December 2007 - Disclaimer

ORBIFLY MET'MAP TEAM :

Programming & Development : Alexandra Zaïnal
Concept & original design : Baudouin d'Aumeries
Assistance for programming : Marc-Olivier Méhu
Technical & hardware support : Manuel Goepfert

Contact : metmap@orbifly.com




SOURCES & CREDITS :

   NOAA       Earth
Advisory